createdAt,value
2022-10-09T00:01:40.734Z,101485.72
2022-10-09T00:04:11.474Z,101481.28
2022-10-09T00:06:42.066Z,101472.09
2022-10-09T00:09:14.961Z,101478.69
2022-10-09T00:11:42.964Z,101470.47
2022-10-09T00:14:13.658Z,101470.25
2022-10-09T00:16:47.260Z,101476.22
2022-10-09T00:19:17.514Z,101474.53
2022-10-09T00:21:47.393Z,101474.19
2022-10-09T00:24:19.279Z,101469.63
2022-10-09T00:26:48.354Z,101462.56
2022-10-09T00:29:18.560Z,101461.19
2022-10-09T00:31:50.678Z,101463.78
2022-10-09T00:34:19.862Z,101458.13
2022-10-09T00:36:48.687Z,101460.22
2022-10-09T00:39:17.654Z,101457.81
2022-10-09T00:41:46.834Z,101464.94
2022-10-09T00:44:57.119Z,101467.28
2022-10-09T00:47:31.800Z,101476.19
2022-10-09T00:50:07.907Z,101483.22
2022-10-09T00:52:39.358Z,101485.38
2022-10-09T00:55:09.454Z,101486.78
2022-10-09T00:57:43.336Z,101490.19
2022-10-09T01:00:22.610Z,101480.31
2022-10-09T01:02:51.499Z,101489.16
2022-10-09T01:05:23.171Z,101487.31
2022-10-09T01:08:12.059Z,101479.63
2022-10-09T01:11:23.135Z,101481.66
2022-10-09T01:14:05.479Z,101483.34
2022-10-09T01:17:07.466Z,101489.53
2022-10-09T01:20:14.838Z,101487.09
2022-10-09T01:23:20.370Z,101482.03
2022-10-09T01:26:30.324Z,101473.59
2022-10-09T01:29:07.125Z,101475.63
2022-10-09T01:31:43.180Z,101471.75
2022-10-09T01:34:14.240Z,101473.13
2022-10-09T01:36:45.178Z,101474.03
2022-10-09T01:39:23.384Z,101463.72
2022-10-09T01:41:54.155Z,101462.56
2022-10-09T01:44:27.932Z,101463.53
2022-10-09T01:46:57.227Z,101458.53
2022-10-09T01:49:42.745Z,101461.06
2022-10-09T01:52:22.441Z,101460.34
2022-10-09T01:55:28.195Z,101461.22
2022-10-09T01:58:28.859Z,101457.16
2022-10-09T02:01:07.329Z,101458.50
2022-10-09T02:03:38.938Z,101461.38
2022-10-09T02:06:12.388Z,101465.25
2022-10-09T02:08:54.179Z,101455.25
2022-10-09T02:11:32.506Z,101468.63
2022-10-09T02:14:02.922Z,101462.91
2022-10-09T02:16:37.632Z,101456.81
2022-10-09T02:19:36.002Z,101460.53
2022-10-09T02:22:24.527Z,101453.94
2022-10-09T02:24:54.433Z,101458.84
2022-10-09T02:27:23.437Z,101452.66
2022-10-09T02:29:53.532Z,101457.25
2022-10-09T02:32:23.125Z,101455.81
2022-10-09T02:34:54.025Z,101450.53
2022-10-09T02:37:23.239Z,101442.94
2022-10-09T02:39:52.205Z,101447.97
2022-10-09T02:42:23.325Z,101449.34
2022-10-09T02:44:52.867Z,101446.16
2022-10-09T02:47:23.117Z,101439.34
2022-10-09T02:49:52.080Z,101436.69
2022-10-09T02:52:20.892Z,101432.78
2022-10-09T02:54:52.154Z,101436.03
2022-10-09T02:57:20.952Z,101441.78
2022-10-09T02:59:51.469Z,101435.66
2022-10-09T03:02:19.855Z,101433.31
2022-10-09T03:04:52.134Z,101444.59
2022-10-09T03:07:22.273Z,101432.38
2022-10-09T03:09:51.802Z,101429.31
2022-10-09T03:12:22.373Z,101432.88
2022-10-09T03:14:54.699Z,101431.00
2022-10-09T03:17:22.667Z,101427.63
2022-10-09T03:19:51.475Z,101421.75
2022-10-09T03:22:19.642Z,101427.25
2022-10-09T03:24:48.713Z,101420.44
2022-10-09T03:27:16.720Z,101416.00
2022-10-09T03:29:47.534Z,101418.22
2022-10-09T03:32:17.437Z,101416.13
2022-10-09T03:34:55.386Z,101411.34
2022-10-09T03:37:23.703Z,101413.59
2022-10-09T03:39:52.867Z,101405.44
2022-10-09T03:42:20.533Z,101408.31
2022-10-09T03:44:51.748Z,101407.78
2022-10-09T03:47:21.652Z,101409.53
2022-10-09T03:49:50.796Z,101408.78
2022-10-09T03:52:18.707Z,101410.13
2022-10-09T03:54:47.647Z,101410.25
2022-10-09T03:57:16.607Z,101407.72
2022-10-09T03:59:45.652Z,101407.72
2022-10-09T04:02:15.784Z,101410.25
2022-10-09T04:04:43.741Z,101398.69
2022-10-09T04:07:12.321Z,101397.00
2022-10-09T04:09:41.714Z,101396.47
2022-10-09T04:12:10.511Z,101395.16
2022-10-09T04:14:38.671Z,101391.78
2022-10-09T04:17:08.444Z,101395.09
2022-10-09T04:19:37.032Z,101392.22
2022-10-09T04:22:06.478Z,101384.66
2022-10-09T04:24:34.719Z,101393.69
2022-10-09T04:27:07.987Z,101390.63
2022-10-09T04:29:37.326Z,101382.16
2022-10-09T04:32:06.471Z,101381.69
2022-10-09T04:34:34.795Z,101379.81
2022-10-09T04:37:02.825Z,101381.97
2022-10-09T04:39:33.127Z,101379.09
2022-10-09T04:42:08.666Z,101379.66
2022-10-09T04:44:37.666Z,101380.38
2022-10-09T04:47:10.535Z,101379.28
2022-10-09T04:49:40.555Z,101369.69
2022-10-09T04:52:12.661Z,101361.56
2022-10-09T04:54:44.157Z,101363.81
2022-10-09T04:57:16.376Z,101375.56
2022-10-09T04:59:46.792Z,101376.63
2022-10-09T05:02:15.239Z,101373.53
2022-10-09T05:04:45.147Z,101374.19
2022-10-09T05:07:13.939Z,101373.63
2022-10-09T05:09:46.810Z,101374.28
2022-10-09T05:12:14.926Z,101377.47
2022-10-09T05:14:43.756Z,101373.19
2022-10-09T05:17:17.207Z,101381.84
2022-10-09T05:19:48.358Z,101378.66
2022-10-09T05:22:22.934Z,101382.03
2022-10-09T05:24:51.281Z,101371.69
2022-10-09T05:27:20.977Z,101372.03
2022-10-09T05:29:51.585Z,101374.25
2022-10-09T05:32:31.926Z,101367.72
2022-10-09T05:35:00.778Z,101362.19
2022-10-09T05:37:46.650Z,101356.81
2022-10-09T05:40:17.064Z,101356.13
2022-10-09T05:42:47.154Z,101351.81
2022-10-09T05:45:16.690Z,101354.69
2022-10-09T05:47:44.734Z,101349.28
2022-10-09T05:50:15.646Z,101348.09
2022-10-09T05:52:46.559Z,101339.03
2022-10-09T05:55:15.944Z,101342.88
2022-10-09T05:57:46.081Z,101339.59
2022-10-09T06:00:20.951Z,101341.72
2022-10-09T06:02:55.482Z,101345.38
2022-10-09T06:05:24.814Z,101345.00
2022-10-09T06:07:57.485Z,101335.69
2022-10-09T06:10:32.470Z,101337.13
2022-10-09T06:13:04.420Z,101338.88
2022-10-09T06:15:33.996Z,101343.31
2022-10-09T06:18:02.973Z,101348.44
2022-10-09T06:20:31.729Z,101332.41
2022-10-09T06:23:00.930Z,101331.41
2022-10-09T06:25:29.984Z,101347.13
2022-10-09T06:27:58.914Z,101341.47
2022-10-09T06:30:27.192Z,101341.94
2022-10-09T06:32:56.314Z,101340.28
2022-10-09T06:35:27.391Z,101341.97
2022-10-09T06:37:56.446Z,101336.16
2022-10-09T06:40:24.935Z,101335.28
2022-10-09T06:42:54.787Z,101338.22
2022-10-09T06:45:27.356Z,101337.84
2022-10-09T06:47:56.604Z,101339.09
2022-10-09T06:50:24.738Z,101352.25
2022-10-09T06:52:54.136Z,101346.59
2022-10-09T06:55:24.104Z,101349.53
2022-10-09T06:57:57.104Z,101349.94
2022-10-09T07:00:26.053Z,101343.66
2022-10-09T07:02:54.346Z,101342.56
2022-10-09T07:05:22.739Z,101346.28
2022-10-09T07:07:51.681Z,101349.63
2022-10-09T07:10:25.051Z,101339.78
2022-10-09T07:12:53.736Z,101342.06
2022-10-09T07:15:22.525Z,101333.84
2022-10-09T07:17:50.685Z,101339.31
2022-10-09T07:20:25.333Z,101348.16
2022-10-09T07:22:53.623Z,101341.47
2022-10-09T07:25:22.666Z,101333.91
2022-10-09T07:27:51.793Z,101332.81
2022-10-09T07:30:20.519Z,101334.28
2022-10-09T07:32:48.922Z,101334.53
2022-10-09T07:35:18.361Z,101347.28
2022-10-09T07:37:46.722Z,101344.75
2022-10-09T07:40:15.859Z,101345.13
2022-10-09T07:42:43.515Z,101343.81
2022-10-09T07:45:12.622Z,101337.56
2022-10-09T07:47:42.752Z,101341.34
2022-10-09T07:50:11.657Z,101329.22
2022-10-09T07:52:40.549Z,101335.19
2022-10-09T07:55:09.622Z,101332.25
2022-10-09T07:57:38.669Z,101333.34
2022-10-09T08:00:07.894Z,101332.78
2022-10-09T08:02:36.861Z,101324.25
2022-10-09T08:05:05.061Z,101320.31
2022-10-09T08:07:35.032Z,101319.03
2022-10-09T08:10:09.438Z,101317.66
2022-10-09T08:12:38.035Z,101319.66
2022-10-09T08:15:11.310Z,101322.50
2022-10-09T08:17:40.383Z,101307.53
2022-10-09T08:20:09.511Z,101305.16
2022-10-09T08:22:38.793Z,101301.72
2022-10-09T08:25:07.101Z,101304.34
2022-10-09T08:27:36.871Z,101303.69
2022-10-09T08:30:05.426Z,101296.28
2022-10-09T08:32:34.843Z,101296.00
2022-10-09T08:35:07.523Z,101297.94
2022-10-09T08:37:35.789Z,101298.56
2022-10-09T08:40:07.572Z,101296.81
2022-10-09T08:42:50.138Z,101296.09
2022-10-09T08:45:20.279Z,101287.16
2022-10-09T08:47:57.414Z,101284.84
2022-10-09T08:50:32.443Z,101288.09
2022-10-09T08:53:29.228Z,101279.81
2022-10-09T08:56:01.475Z,101273.72
2022-10-09T08:58:37.266Z,101286.19
2022-10-09T09:01:42.663Z,101280.00
2022-10-09T09:04:38.095Z,101281.00
2022-10-09T09:07:30.964Z,101283.94
2022-10-09T09:10:50.108Z,101268.53
2022-10-09T09:13:40.227Z,101258.78
2022-10-09T09:16:50.513Z,101259.84
2022-10-09T09:19:25.457Z,101264.09
2022-10-09T09:21:54.101Z,101265.47
2022-10-09T09:24:32.747Z,101272.94
2022-10-09T09:27:11.062Z,101272.22
2022-10-09T09:29:52.301Z,101272.03
2022-10-09T09:32:23.602Z,101266.25
2022-10-09T09:34:55.818Z,101272.31
2022-10-09T09:37:25.088Z,101264.34
2022-10-09T09:40:34.998Z,101264.72
2022-10-09T09:42:47.590Z,101264.13
2022-10-09T09:45:29.731Z,101251.72
2022-10-09T09:48:12.427Z,101252.94
2022-10-09T09:51:05.081Z,101250.28
2022-10-09T09:53:44.716Z,101236.13
2022-10-09T09:56:12.855Z,101240.38
2022-10-09T09:58:47.690Z,101238.91
2022-10-09T10:01:25.636Z,101237.22
2022-10-09T10:03:56.921Z,101236.84
2022-10-09T10:06:41.800Z,101223.22
2022-10-09T10:09:19.189Z,101228.38
2022-10-09T10:12:04.124Z,101221.88
2022-10-09T10:14:37.769Z,101229.34
2022-10-09T10:17:05.830Z,101229.66
2022-10-09T10:19:39.719Z,101223.97
2022-10-09T10:22:26.554Z,101220.47
2022-10-09T10:24:59.194Z,101220.59
2022-10-09T10:27:30.946Z,101230.09
2022-10-09T10:30:07.800Z,101221.13
2022-10-09T10:33:10.788Z,101213.41
2022-10-09T10:35:43.554Z,101210.63
2022-10-09T10:38:42.350Z,101216.22
2022-10-09T10:41:21.526Z,101216.78
2022-10-09T10:44:11.214Z,101209.44
2022-10-09T10:46:53.245Z,101216.31
2022-10-09T10:49:23.045Z,101215.50
2022-10-09T10:52:10.994Z,101225.56
2022-10-09T10:54:57.545Z,101222.16
2022-10-09T10:58:00.385Z,101222.78
2022-10-09T11:00:29.507Z,101216.50
2022-10-09T11:03:06.501Z,101216.03
2022-10-09T11:05:41.665Z,101211.16
2022-10-09T11:08:43.805Z,101210.00
2022-10-09T11:11:50.866Z,101208.44
2022-10-09T11:14:43.212Z,101208.34
2022-10-09T11:17:31.535Z,101204.72
2022-10-09T11:20:21.125Z,101196.53
2022-10-09T11:23:03.308Z,101212.44
2022-10-09T11:26:04.374Z,101202.81
2022-10-09T11:28:57.814Z,101199.25
2022-10-09T11:32:01.865Z,101190.25
2022-10-09T11:34:55.723Z,101180.69
2022-10-09T11:37:30.420Z,101191.88
2022-10-09T11:39:58.867Z,101177.91
2022-10-09T11:42:28.218Z,101182.81
2022-10-09T11:45:36.671Z,101180.03
2022-10-09T11:48:44.849Z,101177.78
2022-10-09T11:51:30.688Z,101179.75
2022-10-09T11:54:00.289Z,101170.25
2022-10-09T11:56:32.233Z,101176.00
2022-10-09T11:59:07.469Z,101179.94
2022-10-09T12:01:39.906Z,101174.31
2022-10-09T12:04:23.908Z,101183.47
2022-10-09T12:07:04.381Z,101190.91
2022-10-09T12:09:42.947Z,101190.63
2022-10-09T12:12:15.810Z,101191.69
2022-10-09T12:14:50.665Z,101197.31
2022-10-09T12:17:22.952Z,101192.47
2022-10-09T12:20:02.380Z,101197.44
2022-10-09T12:22:52.406Z,101197.16
2022-10-09T12:25:50.523Z,101195.88
2022-10-09T12:28:28.337Z,101190.63
2022-10-09T12:31:01.501Z,101194.56
2022-10-09T12:33:41.425Z,101198.41
2022-10-09T12:36:28.627Z,101197.44
2022-10-09T12:38:58.535Z,101200.41
2022-10-09T12:41:32.730Z,101198.66
2022-10-09T12:44:03.443Z,101186.22
2022-10-09T12:46:38.830Z,101180.16
2022-10-09T12:49:20.029Z,101193.34
2022-10-09T12:51:56.388Z,101184.69
2022-10-09T12:54:30.094Z,101175.91
2022-10-09T12:56:59.446Z,101182.88
2022-10-09T12:59:29.588Z,101180.75
2022-10-09T13:02:00.391Z,101182.25
2022-10-09T13:04:34.034Z,101186.00
2022-10-09T13:07:07.734Z,101184.56
2022-10-09T13:09:40.700Z,101179.53
2022-10-09T13:12:19.898Z,101187.16
2022-10-09T13:14:58.372Z,101184.72
2022-10-09T13:17:41.706Z,101180.31
2022-10-09T13:20:15.295Z,101173.81
2022-10-09T13:22:58.662Z,101167.00
2022-10-09T13:25:32.204Z,101172.47
2022-10-09T13:28:02.365Z,101168.75
2022-10-09T13:30:31.547Z,101170.25
2022-10-09T13:32:59.731Z,101163.06
2022-10-09T13:35:28.544Z,101169.59
2022-10-09T13:37:56.785Z,101160.63
2022-10-09T13:40:24.876Z,101164.06
2022-10-09T13:42:56.386Z,101164.75
2022-10-09T13:45:24.924Z,101164.91
2022-10-09T13:47:54.542Z,101164.56
2022-10-09T13:50:23.067Z,101162.16
2022-10-09T13:52:51.947Z,101166.34
2022-10-09T13:55:20.789Z,101163.44
2022-10-09T13:57:49.155Z,101164.28
2022-10-09T14:00:17.664Z,101156.03
2022-10-09T14:02:46.364Z,101159.41
2022-10-09T14:05:14.842Z,101152.03
2022-10-09T14:07:42.854Z,101146.53
2022-10-09T14:10:11.824Z,101153.66
2022-10-09T14:12:40.815Z,101153.06
2022-10-09T14:15:09.809Z,101161.09
2022-10-09T14:17:38.316Z,101161.63
2022-10-09T14:20:08.759Z,101156.63
2022-10-09T14:22:37.038Z,101168.59
2022-10-09T14:25:06.927Z,101166.78
2022-10-09T14:30:03.084Z,101174.34
2022-10-09T14:32:32.054Z,101168.88
2022-10-09T14:35:00.667Z,101175.59
2022-10-09T14:37:41.100Z,101176.50
2022-10-09T14:40:11.807Z,101178.22
2022-10-09T14:42:40.361Z,101185.97
2022-10-09T14:45:10.344Z,101188.78
2022-10-09T14:47:38.740Z,101189.88
2022-10-09T14:50:07.159Z,101182.56
2022-10-09T14:52:38.750Z,101188.00
2022-10-09T14:55:09.462Z,101186.56
2022-10-09T14:57:38.275Z,101188.41
2022-10-09T15:00:08.770Z,101187.16
2022-10-09T15:02:38.547Z,101189.66
2022-10-09T15:05:07.109Z,101189.34
2022-10-09T15:07:34.709Z,101196.88
2022-10-09T15:10:05.077Z,101196.31
2022-10-09T15:12:33.941Z,101196.31
2022-10-09T15:15:03.538Z,101205.09
2022-10-09T15:17:32.673Z,101204.47
2022-10-09T15:20:01.471Z,101204.06
2022-10-09T15:22:35.271Z,101202.84
2022-10-09T15:25:05.474Z,101210.41
2022-10-09T15:27:34.748Z,101202.25
2022-10-09T15:30:04.355Z,101210.63
2022-10-09T15:32:32.738Z,101207.72
2022-10-09T15:35:02.420Z,101213.00
2022-10-09T15:37:30.976Z,101207.75
2022-10-09T15:39:58.813Z,101219.69
2022-10-09T15:42:28.237Z,101207.09
2022-10-09T15:44:57.260Z,101207.97
2022-10-09T15:47:49.964Z,101211.31
2022-10-09T15:50:17.946Z,101210.06
2022-10-09T15:52:45.993Z,101207.75
2022-10-09T15:55:15.283Z,101206.28
2022-10-09T15:57:43.901Z,101204.66
2022-10-09T16:00:13.803Z,101205.09
2022-10-09T16:02:42.867Z,101211.13
2022-10-09T16:05:11.785Z,101213.44
2022-10-09T16:07:39.796Z,101214.28
2022-10-09T16:10:10.253Z,101221.00
2022-10-09T16:12:42.543Z,101221.63
2022-10-09T16:15:11.181Z,101225.34
2022-10-09T16:17:40.039Z,101231.81
2022-10-09T16:20:08.176Z,101233.97
2022-10-09T16:22:39.644Z,101229.16
2022-10-09T16:25:08.076Z,101230.19
2022-10-09T16:27:37.232Z,101235.22
2022-10-09T16:30:06.427Z,101234.81
2022-10-09T16:32:35.403Z,101234.41
2022-10-09T16:35:05.142Z,101228.13
2022-10-09T16:37:34.299Z,101232.31
2022-10-09T16:40:02.832Z,101229.84
2022-10-09T16:42:33.144Z,101246.75
2022-10-09T16:45:02.678Z,101242.34
2022-10-09T16:47:32.232Z,101241.72
2022-10-09T16:50:02.095Z,101246.53
2022-10-09T16:52:31.114Z,101247.59
2022-10-09T16:55:00.764Z,101248.41
2022-10-09T16:57:28.828Z,101244.00
2022-10-09T16:59:59.305Z,101235.66
2022-10-09T17:02:28.918Z,101244.44
2022-10-09T17:04:58.694Z,101232.78
2022-10-09T17:07:29.132Z,101239.88
2022-10-09T17:09:58.255Z,101244.47
2022-10-09T17:12:29.720Z,101242.59
2022-10-09T17:14:59.541Z,101244.50
2022-10-09T17:17:27.865Z,101240.72
2022-10-09T17:19:59.591Z,101245.75
2022-10-09T17:22:28.588Z,101244.28
2022-10-09T17:24:59.389Z,101244.91
2022-10-09T17:27:28.445Z,101241.56
2022-10-09T17:29:59.643Z,101241.81
2022-10-09T17:32:28.552Z,101239.91
2022-10-09T17:34:59.765Z,101239.72
2022-10-09T17:37:28.665Z,101244.53
2022-10-09T17:39:59.430Z,101239.72
2022-10-09T17:42:28.824Z,101244.97
2022-10-09T17:44:57.711Z,101246.22
2022-10-09T17:47:25.853Z,101237.44
2022-10-09T17:49:55.490Z,101238.28
2022-10-09T17:52:23.877Z,101242.50
2022-10-09T17:54:51.825Z,101242.03
2022-10-09T17:57:20.933Z,101248.56
2022-10-09T17:59:48.754Z,101247.91
2022-10-09T18:02:18.398Z,101251.69
2022-10-09T18:04:47.168Z,101243.72
2022-10-09T18:07:19.249Z,101245.41
2022-10-09T18:09:50.891Z,101240.41
2022-10-09T18:12:20.579Z,101253.16
2022-10-09T18:14:48.090Z,101241.03
2022-10-09T18:17:18.796Z,101245.41
2022-10-09T18:19:47.719Z,101249.19
2022-10-09T18:22:16.669Z,101249.63
2022-10-09T18:24:45.862Z,101247.94
2022-10-09T18:27:18.606Z,101246.28
2022-10-09T18:29:48.989Z,101253.38
2022-10-09T18:32:19.788Z,101254.22
2022-10-09T18:34:48.835Z,101249.19
2022-10-09T18:37:21.547Z,101247.94
2022-10-09T18:39:50.716Z,101244.19
2022-10-09T18:42:18.754Z,101238.75
2022-10-09T18:44:47.579Z,101244.19
2022-10-09T18:47:19.985Z,101244.19
2022-10-09T18:49:54.476Z,101242.50
2022-10-09T18:52:24.021Z,101249.81
2022-10-09T18:54:55.170Z,101242.97
2022-10-09T18:57:26.184Z,101243.75
2022-10-09T18:59:56.256Z,101243.34
2022-10-09T19:02:27.204Z,101239.19
2022-10-09T19:04:56.866Z,101245.03
2022-10-09T19:07:30.471Z,101240.00
2022-10-09T19:09:59.115Z,101237.69
2022-10-09T19:12:28.825Z,101239.56
2022-10-09T19:15:00.321Z,101236.25
2022-10-09T19:17:28.974Z,101235.63
2022-10-09T19:19:59.785Z,101239.19
2022-10-09T19:22:29.357Z,101241.47
2022-10-09T19:25:00.710Z,101242.94
2022-10-09T19:27:30.112Z,101233.94
2022-10-09T19:29:59.369Z,101238.75
2022-10-09T19:32:27.858Z,101239.38
2022-10-09T19:34:56.999Z,101238.34
2022-10-09T19:37:30.392Z,101233.31
2022-10-09T19:40:00.852Z,101231.63
2022-10-09T19:42:28.865Z,101237.31
2022-10-09T19:44:58.330Z,101236.69
2022-10-09T19:47:26.768Z,101231.03
2022-10-09T19:49:55.935Z,101228.31
2022-10-09T19:52:24.319Z,101235.84
2022-10-09T19:54:56.042Z,101231.63
2022-10-09T19:57:23.814Z,101221.63
2022-10-09T19:59:52.689Z,101227.25
2022-10-09T20:02:24.488Z,101223.50
2022-10-09T20:04:53.842Z,101226.00
2022-10-09T20:07:21.979Z,101213.06
2022-10-09T20:09:50.594Z,101215.78
2022-10-09T20:12:19.473Z,101214.94
2022-10-09T20:14:50.698Z,101213.91
2022-10-09T20:17:19.058Z,101205.31
2022-10-09T20:19:50.193Z,101202.41
2022-10-09T20:22:18.887Z,101207.22
2022-10-09T20:24:47.627Z,101203.25
2022-10-09T20:27:15.700Z,101195.31
2022-10-09T20:29:44.552Z,101193.63
2022-10-09T20:32:12.783Z,101192.38
2022-10-09T20:34:42.420Z,101204.88
2022-10-09T20:37:10.697Z,101195.91
2022-10-09T20:39:41.011Z,101196.53
2022-10-09T20:42:10.047Z,101195.69
2022-10-09T20:44:38.713Z,101196.09
2022-10-09T20:47:10.102Z,101191.50
2022-10-09T20:49:39.929Z,101185.88
2022-10-09T20:52:10.609Z,101187.56
2022-10-09T20:54:39.738Z,101190.66
2022-10-09T20:57:08.416Z,101192.69
2022-10-09T20:59:36.711Z,101198.16
2022-10-09T21:02:06.602Z,101199.00
2022-10-09T21:04:35.737Z,101198.53
2022-10-09T21:07:04.694Z,101190.75
2022-10-09T21:09:33.480Z,101193.91
2022-10-09T21:12:05.198Z,101193.06
2022-10-09T21:14:33.769Z,101199.50
2022-10-09T21:17:02.457Z,101206.75
2022-10-09T21:19:32.688Z,101208.84
2022-10-09T21:22:01.300Z,101203.41
2022-10-09T21:24:29.869Z,101201.72
2022-10-09T21:26:59.102Z,101205.47
2022-10-09T21:29:30.694Z,101202.56
2022-10-09T21:31:59.528Z,101209.25
2022-10-09T21:34:30.922Z,101201.91
2022-10-09T21:37:20.328Z,101207.13
2022-10-09T21:39:49.822Z,101210.88
2022-10-09T21:42:18.650Z,101209.44
2022-10-09T21:44:46.743Z,101204.22
2022-10-09T21:47:20.909Z,101211.78
2022-10-09T21:49:49.123Z,101211.31
2022-10-09T21:52:18.883Z,101212.56
2022-10-09T21:54:46.784Z,101213.38
2022-10-09T21:57:15.810Z,101215.06
2022-10-09T21:59:44.738Z,101213.19
2022-10-09T22:02:13.757Z,101210.69
2022-10-09T22:04:41.759Z,101217.13
2022-10-09T22:07:09.685Z,101217.13
2022-10-09T22:09:37.698Z,101209.63
2022-10-09T22:12:06.715Z,101219.44
2022-10-09T22:14:36.679Z,101213.38
2022-10-09T22:17:06.456Z,101231.53
2022-10-09T22:19:35.896Z,101218.47
2022-10-09T22:22:04.592Z,101223.00
2022-10-09T22:24:32.860Z,101229.72
2022-10-09T22:27:03.937Z,101233.91
2022-10-09T22:29:31.966Z,101229.72
2022-10-09T22:32:00.577Z,101228.66
2022-10-09T22:34:28.697Z,101217.94
2022-10-09T22:36:59.382Z,101228.13
2022-10-09T22:39:28.492Z,101225.00
2022-10-09T22:41:59.464Z,101233.53
2022-10-09T22:44:28.405Z,101228.88
2022-10-09T22:46:59.394Z,101229.09
2022-10-09T22:49:27.777Z,101229.34
2022-10-09T22:51:58.824Z,101224.09
2022-10-09T22:54:26.769Z,101224.88
2022-10-09T22:56:55.691Z,101223.41
2022-10-09T22:59:24.410Z,101220.03
2022-10-09T23:01:57.521Z,101213.97
2022-10-09T23:04:25.982Z,101216.88
2022-10-09T23:06:58.377Z,101208.47
2022-10-09T23:09:30.734Z,101204.72
2022-10-09T23:12:00.389Z,101210.03
2022-10-09T23:14:29.211Z,101209.38
2022-10-09T23:16:59.072Z,101217.91
2022-10-09T23:19:30.908Z,101218.25
2022-10-09T23:21:58.920Z,101205.38
2022-10-09T23:24:28.454Z,101212.59
2022-10-09T23:26:56.818Z,101210.72
2022-10-09T23:29:25.394Z,101223.19
2022-10-09T23:31:55.628Z,101220.84
2022-10-09T23:34:23.726Z,101216.47
2022-10-09T23:36:53.812Z,101220.59
2022-10-09T23:39:21.883Z,101213.50
2022-10-09T23:41:50.504Z,101215.00
2022-10-09T23:44:22.192Z,101215.34
2022-10-09T23:46:51.258Z,101215.91
2022-10-09T23:49:19.849Z,101217.06
2022-10-09T23:51:48.016Z,101228.66
2022-10-09T23:54:19.215Z,101223.56
2022-10-09T23:56:47.745Z,101216.88
2022-10-09T23:59:16.632Z,101212.34
